sensor_id;sensor_type;location;lat;lon;timestamp;temperature;humidity
43647;DHT22;56152;49.996;18.980;2023-12-29T00:01:31;5.70;94.80
43647;DHT22;56152;49.996;18.980;2023-12-29T00:06:37;5.70;94.60
43647;DHT22;56152;49.996;18.980;2023-12-29T00:11:49;5.70;94.60
43647;DHT22;56152;49.996;18.980;2023-12-29T00:16:53;5.80;94.60
43647;DHT22;56152;49.996;18.980;2023-12-29T00:21:57;5.80;94.50
43647;DHT22;56152;49.996;18.980;2023-12-29T00:27:01;5.90;94.50
43647;DHT22;56152;49.996;18.980;2023-12-29T00:32:07;5.90;94.50
43647;DHT22;56152;49.996;18.980;2023-12-29T00:37:10;5.90;94.50
43647;DHT22;56152;49.996;18.980;2023-12-29T00:42:13;5.90;94.40
43647;DHT22;56152;49.996;18.980;2023-12-29T00:47:17;5.90;94.50
43647;DHT22;56152;49.996;18.980;2023-12-29T00:52:23;5.90;94.50
43647;DHT22;56152;49.996;18.980;2023-12-29T00:57:25;5.90;94.50
43647;DHT22;56152;49.996;18.980;2023-12-29T01:02:28;5.90;94.60
43647;DHT22;56152;49.996;18.980;2023-12-29T01:07:31;5.90;94.60
43647;DHT22;56152;49.996;18.980;2023-12-29T01:12:34;5.90;94.60
43647;DHT22;56152;49.996;18.980;2023-12-29T01:17:38;6.00;94.70
43647;DHT22;56152;49.996;18.980;2023-12-29T01:22:40;6.00;94.70
43647;DHT22;56152;49.996;18.980;2023-12-29T01:27:44;6.00;94.60
43647;DHT22;56152;49.996;18.980;2023-12-29T01:32:48;6.10;94.70
43647;DHT22;56152;49.996;18.980;2023-12-29T01:37:50;6.10;94.70
43647;DHT22;56152;49.996;18.980;2023-12-29T01:42:52;6.20;94.60
43647;DHT22;56152;49.996;18.980;2023-12-29T01:47:59;6.20;94.60
43647;DHT22;56152;49.996;18.980;2023-12-29T01:53:04;6.30;94.60
43647;DHT22;56152;49.996;18.980;2023-12-29T01:58:07;6.30;94.60
43647;DHT22;56152;49.996;18.980;2023-12-29T02:03:11;6.30;94.80
43647;DHT22;56152;49.996;18.980;2023-12-29T02:08:13;6.40;94.50
43647;DHT22;56152;49.996;18.980;2023-12-29T02:13:16;6.30;94.50
43647;DHT22;56152;49.996;18.980;2023-12-29T02:18:21;6.10;94.50
43647;DHT22;56152;49.996;18.980;2023-12-29T02:23:27;6.10;94.60
43647;DHT22;56152;49.996;18.980;2023-12-29T02:28:31;6.00;94.60
43647;DHT22;56152;49.996;18.980;2023-12-29T02:33:40;6.00;94.70
43647;DHT22;56152;49.996;18.980;2023-12-29T02:38:45;5.90;94.60
43647;DHT22;56152;49.996;18.980;2023-12-29T02:43:49;5.90;94.60
43647;DHT22;56152;49.996;18.980;2023-12-29T02:48:53;5.90;94.70
43647;DHT22;56152;49.996;18.980;2023-12-29T02:53:58;5.90;94.70
43647;DHT22;56152;49.996;18.980;2023-12-29T02:59:02;5.90;94.80
43647;DHT22;56152;49.996;18.980;2023-12-29T03:04:13;5.80;94.70
43647;DHT22;56152;49.996;18.980;2023-12-29T03:09:15;5.80;94.80
43647;DHT22;56152;49.996;18.980;2023-12-29T03:14:18;5.80;94.80
43647;DHT22;56152;49.996;18.980;2023-12-29T03:19:20;5.80;94.80
43647;DHT22;56152;49.996;18.980;2023-12-29T03:24:25;5.80;95.10
43647;DHT22;56152;49.996;18.980;2023-12-29T03:29:29;5.70;94.80
43647;DHT22;56152;49.996;18.980;2023-12-29T03:34:34;5.70;94.80
43647;DHT22;56152;49.996;18.980;2023-12-29T03:39:36;5.80;94.80
43647;DHT22;56152;49.996;18.980;2023-12-29T03:44:44;5.80;94.80
43647;DHT22;56152;49.996;18.980;2023-12-29T03:49:49;5.90;94.70
43647;DHT22;56152;49.996;18.980;2023-12-29T03:54:53;5.90;94.60
43647;DHT22;56152;49.996;18.980;2023-12-29T03:59:58;5.90;94.50
43647;DHT22;56152;49.996;18.980;2023-12-29T04:05:00;5.90;94.50
43647;DHT22;56152;49.996;18.980;2023-12-29T04:10:07;6.00;94.50
43647;DHT22;56152;49.996;18.980;2023-12-29T04:15:14;6.00;94.40
43647;DHT22;56152;49.996;18.980;2023-12-29T04:20:16;6.10;94.30
43647;DHT22;56152;49.996;18.980;2023-12-29T04:25:21;6.10;94.20
43647;DHT22;56152;49.996;18.980;2023-12-29T04:30:28;6.20;94.10
43647;DHT22;56152;49.996;18.980;2023-12-29T04:35:30;6.30;94.10
43647;DHT22;56152;49.996;18.980;2023-12-29T04:40:32;6.40;93.90
43647;DHT22;56152;49.996;18.980;2023-12-29T04:45:36;6.40;93.80
43647;DHT22;56152;49.996;18.980;2023-12-29T04:50:39;6.50;93.70
43647;DHT22;56152;49.996;18.980;2023-12-29T04:55:41;6.60;93.60
43647;DHT22;56152;49.996;18.980;2023-12-29T05:00:44;6.80;93.50
43647;DHT22;56152;49.996;18.980;2023-12-29T05:05:48;6.90;93.40
43647;DHT22;56152;49.996;18.980;2023-12-29T05:10:52;6.90;93.30
43647;DHT22;56152;49.996;18.980;2023-12-29T05:16:01;7.00;93.20
43647;DHT22;56152;49.996;18.980;2023-12-29T05:21:04;7.00;93.20
43647;DHT22;56152;49.996;18.980;2023-12-29T05:26:10;7.00;93.10
43647;DHT22;56152;49.996;18.980;2023-12-29T05:31:19;7.00;93.10
43647;DHT22;56152;49.996;18.980;2023-12-29T05:36:21;7.10;93.10
43647;DHT22;56152;49.996;18.980;2023-12-29T05:41:23;7.00;93.00
43647;DHT22;56152;49.996;18.980;2023-12-29T05:46:33;7.10;93.10
43647;DHT22;56152;49.996;18.980;2023-12-29T05:51:35;7.10;93.10
43647;DHT22;56152;49.996;18.980;2023-12-29T05:56:39;7.10;93.10
43647;DHT22;56152;49.996;18.980;2023-12-29T06:01:42;7.10;93.10
43647;DHT22;56152;49.996;18.980;2023-12-29T06:06:47;7.10;93.10
43647;DHT22;56152;49.996;18.980;2023-12-29T06:11:49;7.00;93.20
43647;DHT22;56152;49.996;18.980;2023-12-29T06:16:54;7.00;93.20
43647;DHT22;56152;49.996;18.980;2023-12-29T06:21:56;7.00;93.30
43647;DHT22;56152;49.996;18.980;2023-12-29T06:26:58;7.10;93.30
43647;DHT22;56152;49.996;18.980;2023-12-29T06:32:02;7.10;93.20
43647;DHT22;56152;49.996;18.980;2023-12-29T06:37:06;7.30;93.10
43647;DHT22;56152;49.996;18.980;2023-12-29T06:42:09;7.30;93.10
43647;DHT22;56152;49.996;18.980;2023-12-29T06:47:12;7.40;93.10
43647;DHT22;56152;49.996;18.980;2023-12-29T06:52:14;7.40;93.10
43647;DHT22;56152;49.996;18.980;2023-12-29T06:57:17;7.40;93.00
43647;DHT22;56152;49.996;18.980;2023-12-29T07:02:20;7.30;93.00
43647;DHT22;56152;49.996;18.980;2023-12-29T07:07:24;7.30;93.10
43647;DHT22;56152;49.996;18.980;2023-12-29T07:12:34;7.30;93.10
43647;DHT22;56152;49.996;18.980;2023-12-29T07:17:42;7.40;93.10
43647;DHT22;56152;49.996;18.980;2023-12-29T07:22:44;7.50;92.90
43647;DHT22;56152;49.996;18.980;2023-12-29T07:27:46;7.50;92.90
43647;DHT22;56152;49.996;18.980;2023-12-29T07:32:51;7.60;92.80
43647;DHT22;56152;49.996;18.980;2023-12-29T07:37:53;7.60;92.70
43647;DHT22;56152;49.996;18.980;2023-12-29T07:42:55;7.70;92.70
43647;DHT22;56152;49.996;18.980;2023-12-29T07:48:01;7.80;92.70
43647;DHT22;56152;49.996;18.980;2023-12-29T07:53:04;7.90;92.60
43647;DHT22;56152;49.996;18.980;2023-12-29T07:58:08;7.90;92.70
43647;DHT22;56152;49.996;18.980;2023-12-29T08:03:12;8.00;92.40
43647;DHT22;56152;49.996;18.980;2023-12-29T08:08:14;8.00;92.30
43647;DHT22;56152;49.996;18.980;2023-12-29T08:13:16;8.10;92.30
43647;DHT22;56152;49.996;18.980;2023-12-29T08:18:21;8.30;92.20
43647;DHT22;56152;49.996;18.980;2023-12-29T08:23:27;8.50;92.00
43647;DHT22;56152;49.996;18.980;2023-12-29T08:28:31;8.70;91.80
43647;DHT22;56152;49.996;18.980;2023-12-29T08:33:50;8.90;91.50
43647;DHT22;56152;49.996;18.980;2023-12-29T08:38:52;9.00;91.30
43647;DHT22;56152;49.996;18.980;2023-12-29T08:43:55;9.00;91.20
43647;DHT22;56152;49.996;18.980;2023-12-29T08:49:00;9.00;91.20
43647;DHT22;56152;49.996;18.980;2023-12-29T08:54:03;9.20;91.10
43647;DHT22;56152;49.996;18.980;2023-12-29T08:59:05;9.30;90.80
43647;DHT22;56152;49.996;18.980;2023-12-29T09:04:09;9.50;90.60
43647;DHT22;56152;49.996;18.980;2023-12-29T09:09:13;9.80;90.40
43647;DHT22;56152;49.996;18.980;2023-12-29T09:14:15;9.90;90.20
43647;DHT22;56152;49.996;18.980;2023-12-29T09:19:22;10.00;90.00
43647;DHT22;56152;49.996;18.980;2023-12-29T09:24:25;10.10;89.90
43647;DHT22;56152;49.996;18.980;2023-12-29T09:29:28;10.20;89.80
43647;DHT22;56152;49.996;18.980;2023-12-29T09:34:32;10.30;89.50
43647;DHT22;56152;49.996;18.980;2023-12-29T09:39:35;10.40;89.10
43647;DHT22;56152;49.996;18.980;2023-12-29T09:44:37;10.40;88.90
43647;DHT22;56152;49.996;18.980;2023-12-29T09:49:44;10.50;88.90
43647;DHT22;56152;49.996;18.980;2023-12-29T09:54:47;10.60;88.50
43647;DHT22;56152;49.996;18.980;2023-12-29T09:59:51;10.70;88.10
43647;DHT22;56152;49.996;18.980;2023-12-29T10:04:56;10.70;87.80
43647;DHT22;56152;49.996;18.980;2023-12-29T10:09:59;10.80;87.60
43647;DHT22;56152;49.996;18.980;2023-12-29T10:15:06;10.90;87.30
43647;DHT22;56152;49.996;18.980;2023-12-29T10:20:31;10.90;86.90
43647;DHT22;56152;49.996;18.980;2023-12-29T10:25:37;11.00;86.80
43647;DHT22;56152;49.996;18.980;2023-12-29T10:30:41;11.00;86.50
43647;DHT22;56152;49.996;18.980;2023-12-29T10:35:56;11.00;86.40
43647;DHT22;56152;49.996;18.980;2023-12-29T10:41:12;10.90;86.10
43647;DHT22;56152;49.996;18.980;2023-12-29T10:46:16;10.80;86.10
43647;DHT22;56152;49.996;18.980;2023-12-29T10:51:27;10.80;86.20
43647;DHT22;56152;49.996;18.980;2023-12-29T10:56:30;10.80;86.30
43647;DHT22;56152;49.996;18.980;2023-12-29T11:01:34;10.70;86.30
43647;DHT22;56152;49.996;18.980;2023-12-29T11:06:42;10.70;86.30
43647;DHT22;56152;49.996;18.980;2023-12-29T11:11:47;10.70;86.20
43647;DHT22;56152;49.996;18.980;2023-12-29T11:16:50;10.70;86.20
43647;DHT22;56152;49.996;18.980;2023-12-29T11:21:57;10.70;86.10
43647;DHT22;56152;49.996;18.980;2023-12-29T11:26:59;10.70;86.00
43647;DHT22;56152;49.996;18.980;2023-12-29T11:32:03;10.60;85.60
43647;DHT22;56152;49.996;18.980;2023-12-29T11:37:30;10.60;85.80
43647;DHT22;56152;49.996;18.980;2023-12-29T11:42:39;10.50;85.70
43647;DHT22;56152;49.996;18.980;2023-12-29T11:47:44;10.40;86.00
43647;DHT22;56152;49.996;18.980;2023-12-29T11:52:48;10.40;86.10
43647;DHT22;56152;49.996;18.980;2023-12-29T11:57:50;10.40;86.20
43647;DHT22;56152;49.996;18.980;2023-12-29T12:02:54;10.40;86.20
43647;DHT22;56152;49.996;18.980;2023-12-29T12:07:58;10.50;86.10
43647;DHT22;56152;49.996;18.980;2023-12-29T12:13:03;10.40;85.70
43647;DHT22;56152;49.996;18.980;2023-12-29T12:18:05;10.40;85.30
43647;DHT22;56152;49.996;18.980;2023-12-29T12:23:17;10.50;85.20
43647;DHT22;56152;49.996;18.980;2023-12-29T12:28:20;10.50;84.90
43647;DHT22;56152;49.996;18.980;2023-12-29T12:33:23;10.50;84.70
43647;DHT22;56152;49.996;18.980;2023-12-29T12:38:28;10.60;84.60
43647;DHT22;56152;49.996;18.980;2023-12-29T12:43:36;10.60;84.10
43647;DHT22;56152;49.996;18.980;2023-12-29T12:48:44;10.50;84.10
43647;DHT22;56152;49.996;18.980;2023-12-29T12:53:54;10.50;84.40
43647;DHT22;56152;49.996;18.980;2023-12-29T12:58:57;10.50;84.20
43647;DHT22;56152;49.996;18.980;2023-12-29T13:04:09;10.50;84.20
43647;DHT22;56152;49.996;18.980;2023-12-29T13:09:13;10.40;84.10
43647;DHT22;56152;49.996;18.980;2023-12-29T13:14:20;10.40;84.00
43647;DHT22;56152;49.996;18.980;2023-12-29T13:19:24;10.30;83.90
43647;DHT22;56152;49.996;18.980;2023-12-29T13:24:30;10.20;83.90
43647;DHT22;56152;49.996;18.980;2023-12-29T13:29:34;10.20;83.80
43647;DHT22;56152;49.996;18.980;2023-12-29T13:34:53;10.10;83.80
43647;DHT22;56152;49.996;18.980;2023-12-29T13:40:08;10.00;83.90
43647;DHT22;56152;49.996;18.980;2023-12-29T13:45:13;9.90;84.00
43647;DHT22;56152;49.996;18.980;2023-12-29T13:50:17;9.90;84.20
43647;DHT22;56152;49.996;18.980;2023-12-29T13:55:25;9.80;84.20
43647;DHT22;56152;49.996;18.980;2023-12-29T14:00:28;9.70;84.30
43647;DHT22;56152;49.996;18.980;2023-12-29T14:05:35;9.60;84.50
43647;DHT22;56152;49.996;18.980;2023-12-29T14:10:39;9.60;84.70
43647;DHT22;56152;49.996;18.980;2023-12-29T14:15:42;9.50;84.90
43647;DHT22;56152;49.996;18.980;2023-12-29T14:20:44;9.40;85.10
43647;DHT22;56152;49.996;18.980;2023-12-29T14:26:03;9.40;85.30
43647;DHT22;56152;49.996;18.980;2023-12-29T14:31:06;9.30;85.50
43647;DHT22;56152;49.996;18.980;2023-12-29T14:36:08;9.20;85.70
43647;DHT22;56152;49.996;18.980;2023-12-29T14:41:12;9.20;85.90
43647;DHT22;56152;49.996;18.980;2023-12-29T14:46:15;9.10;86.10
43647;DHT22;56152;49.996;18.980;2023-12-29T14:51:18;9.00;86.20
43647;DHT22;56152;49.996;18.980;2023-12-29T14:56:23;8.90;86.50
43647;DHT22;56152;49.996;18.980;2023-12-29T15:01:28;8.80;86.80
43647;DHT22;56152;49.996;18.980;2023-12-29T15:06:33;8.70;87.10
43647;DHT22;56152;49.996;18.980;2023-12-29T15:11:42;8.60;87.20
43647;DHT22;56152;49.996;18.980;2023-12-29T15:16:45;8.50;87.60
43647;DHT22;56152;49.996;18.980;2023-12-29T15:21:49;8.50;87.90
43647;DHT22;56152;49.996;18.980;2023-12-29T15:26:55;8.40;88.10
43647;DHT22;56152;49.996;18.980;2023-12-29T15:31:58;8.40;88.10
43647;DHT22;56152;49.996;18.980;2023-12-29T15:37:00;8.30;88.20
43647;DHT22;56152;49.996;18.980;2023-12-29T15:42:05;8.30;88.30
43647;DHT22;56152;49.996;18.980;2023-12-29T15:47:07;8.30;88.60
43647;DHT22;56152;49.996;18.980;2023-12-29T15:52:12;8.30;88.60
43647;DHT22;56152;49.996;18.980;2023-12-29T15:57:17;8.20;88.60
43647;DHT22;56152;49.996;18.980;2023-12-29T16:02:25;8.10;88.70
43647;DHT22;56152;49.996;18.980;2023-12-29T16:07:39;8.10;89.00
43647;DHT22;56152;49.996;18.980;2023-12-29T16:12:46;8.10;89.10
43647;DHT22;56152;49.996;18.980;2023-12-29T16:17:49;8.00;89.30
43647;DHT22;56152;49.996;18.980;2023-12-29T16:22:51;8.00;89.30
43647;DHT22;56152;49.996;18.980;2023-12-29T16:28:01;8.10;89.40
43647;DHT22;56152;49.996;18.980;2023-12-29T16:33:04;8.00;89.40
43647;DHT22;56152;49.996;18.980;2023-12-29T16:38:06;8.10;89.60
43647;DHT22;56152;49.996;18.980;2023-12-29T16:43:16;8.10;89.50
43647;DHT22;56152;49.996;18.980;2023-12-29T16:48:18;8.20;89.50
43647;DHT22;56152;49.996;18.980;2023-12-29T16:53:21;8.20;89.40
43647;DHT22;56152;49.996;18.980;2023-12-29T16:58:27;8.20;89.30
43647;DHT22;56152;49.996;18.980;2023-12-29T17:03:30;8.30;89.50
43647;DHT22;56152;49.996;18.980;2023-12-29T17:08:35;8.40;89.60
43647;DHT22;56152;49.996;18.980;2023-12-29T17:13:54;8.50;89.40
43647;DHT22;56152;49.996;18.980;2023-12-29T17:18:56;8.60;89.30
43647;DHT22;56152;49.996;18.980;2023-12-29T17:24:00;8.70;89.20
43647;DHT22;56152;49.996;18.980;2023-12-29T17:29:07;8.70;89.10
43647;DHT22;56152;49.996;18.980;2023-12-29T17:34:09;8.80;89.00
43647;DHT22;56152;49.996;18.980;2023-12-29T17:39:17;8.80;88.80
43647;DHT22;56152;49.996;18.980;2023-12-29T17:44:33;8.80;88.70
43647;DHT22;56152;49.996;18.980;2023-12-29T17:49:35;8.70;88.90
43647;DHT22;56152;49.996;18.980;2023-12-29T17:54:38;8.70;89.10
43647;DHT22;56152;49.996;18.980;2023-12-29T17:59:46;8.60;89.30
43647;DHT22;56152;49.996;18.980;2023-12-29T18:04:49;8.50;89.50
43647;DHT22;56152;49.996;18.980;2023-12-29T18:09:54;8.50;89.60
43647;DHT22;56152;49.996;18.980;2023-12-29T18:14:57;8.50;89.50
43647;DHT22;56152;49.996;18.980;2023-12-29T18:20:09;8.50;90.10
43647;DHT22;56152;49.996;18.980;2023-12-29T18:25:14;8.50;89.60
43647;DHT22;56152;49.996;18.980;2023-12-29T18:30:19;8.50;89.60
43647;DHT22;56152;49.996;18.980;2023-12-29T18:35:21;8.40;89.80
43647;DHT22;56152;49.996;18.980;2023-12-29T18:40:23;8.40;89.90
43647;DHT22;56152;49.996;18.980;2023-12-29T18:45:27;8.30;90.00
43647;DHT22;56152;49.996;18.980;2023-12-29T18:50:38;8.30;90.10
43647;DHT22;56152;49.996;18.980;2023-12-29T18:55:40;8.30;90.10
43647;DHT22;56152;49.996;18.980;2023-12-29T19:00:46;8.30;90.10
43647;DHT22;56152;49.996;18.980;2023-12-29T19:05:49;8.40;90.10
43647;DHT22;56152;49.996;18.980;2023-12-29T19:10:54;8.40;90.00
43647;DHT22;56152;49.996;18.980;2023-12-29T19:15:59;8.50;89.70
43647;DHT22;56152;49.996;18.980;2023-12-29T19:21:03;8.60;89.70
43647;DHT22;56152;49.996;18.980;2023-12-29T19:26:25;8.60;89.70
43647;DHT22;56152;49.996;18.980;2023-12-29T19:31:31;8.70;89.70
43647;DHT22;56152;49.996;18.980;2023-12-29T19:36:33;8.70;89.50
43647;DHT22;56152;49.996;18.980;2023-12-29T19:41:35;8.80;89.60
43647;DHT22;56152;49.996;18.980;2023-12-29T19:46:41;8.70;89.60
43647;DHT22;56152;49.996;18.980;2023-12-29T19:51:44;8.80;89.50
43647;DHT22;56152;49.996;18.980;2023-12-29T19:56:48;8.80;89.40
43647;DHT22;56152;49.996;18.980;2023-12-29T20:01:57;8.80;89.20
43647;DHT22;56152;49.996;18.980;2023-12-29T20:06:59;8.90;89.30
43647;DHT22;56152;49.996;18.980;2023-12-29T20:12:01;8.80;89.20
43647;DHT22;56152;49.996;18.980;2023-12-29T20:17:05;8.80;89.20
43647;DHT22;56152;49.996;18.980;2023-12-29T20:22:11;8.70;89.30
43647;DHT22;56152;49.996;18.980;2023-12-29T20:27:18;8.60;89.50
43647;DHT22;56152;49.996;18.980;2023-12-29T20:32:22;8.60;89.50
43647;DHT22;56152;49.996;18.980;2023-12-29T20:37:25;8.60;89.60
43647;DHT22;56152;49.996;18.980;2023-12-29T20:42:30;8.60;89.60
43647;DHT22;56152;49.996;18.980;2023-12-29T20:47:41;8.60;89.60
43647;DHT22;56152;49.996;18.980;2023-12-29T20:53:04;8.50;89.50
43647;DHT22;56152;49.996;18.980;2023-12-29T20:58:06;8.50;89.40
43647;DHT22;56152;49.996;18.980;2023-12-29T21:03:09;8.60;89.50
43647;DHT22;56152;49.996;18.980;2023-12-29T21:08:12;8.50;89.50
43647;DHT22;56152;49.996;18.980;2023-12-29T21:13:18;8.40;89.50
43647;DHT22;56152;49.996;18.980;2023-12-29T21:18:26;8.40;89.50
43647;DHT22;56152;49.996;18.980;2023-12-29T21:23:29;8.40;89.70
43647;DHT22;56152;49.996;18.980;2023-12-29T21:28:30;8.40;89.70
43647;DHT22;56152;49.996;18.980;2023-12-29T21:33:35;8.30;89.70
43647;DHT22;56152;49.996;18.980;2023-12-29T21:38:38;8.30;89.90
43647;DHT22;56152;49.996;18.980;2023-12-29T21:43:40;8.20;90.00
43647;DHT22;56152;49.996;18.980;2023-12-29T21:48:44;8.10;90.10
43647;DHT22;56152;49.996;18.980;2023-12-29T21:53:48;8.10;90.20
43647;DHT22;56152;49.996;18.980;2023-12-29T21:58:51;8.20;90.10
43647;DHT22;56152;49.996;18.980;2023-12-29T22:04:00;8.30;90.00
43647;DHT22;56152;49.996;18.980;2023-12-29T22:09:03;8.50;89.70
43647;DHT22;56152;49.996;18.980;2023-12-29T22:14:13;8.50;89.40
43647;DHT22;56152;49.996;18.980;2023-12-29T22:19:23;8.50;89.20
43647;DHT22;56152;49.996;18.980;2023-12-29T22:24:25;8.50;89.20
43647;DHT22;56152;49.996;18.980;2023-12-29T22:29:28;8.60;89.20
43647;DHT22;56152;49.996;18.980;2023-12-29T22:34:35;8.50;89.30
43647;DHT22;56152;49.996;18.980;2023-12-29T22:39:42;8.50;89.40
43647;DHT22;56152;49.996;18.980;2023-12-29T22:44:45;8.50;89.30
43647;DHT22;56152;49.996;18.980;2023-12-29T22:49:49;8.50;89.40
43647;DHT22;56152;49.996;18.980;2023-12-29T22:54:51;8.60;89.30
43647;DHT22;56152;49.996;18.980;2023-12-29T22:59:56;8.50;89.20
43647;DHT22;56152;49.996;18.980;2023-12-29T23:05:02;8.60;89.20
43647;DHT22;56152;49.996;18.980;2023-12-29T23:10:05;8.50;89.10
43647;DHT22;56152;49.996;18.980;2023-12-29T23:15:09;8.50;89.00
43647;DHT22;56152;49.996;18.980;2023-12-29T23:20:13;8.60;88.90
43647;DHT22;56152;49.996;18.980;2023-12-29T23:25:19;8.60;88.60
43647;DHT22;56152;49.996;18.980;2023-12-29T23:30:21;8.60;88.50
43647;DHT22;56152;49.996;18.980;2023-12-29T23:35:27;8.50;88.40
43647;DHT22;56152;49.996;18.980;2023-12-29T23:40:29;8.50;88.40
43647;DHT22;56152;49.996;18.980;2023-12-29T23:45:31;8.50;88.90
43647;DHT22;56152;49.996;18.980;2023-12-29T23:50:41;8.50;88.20
43647;DHT22;56152;49.996;18.980;2023-12-29T23:55:45;8.50;88.10
